createdAt,value
2019-05-20T00:01:24.393Z,72.26
2019-05-20T00:04:50.018Z,72.01
2019-05-20T00:08:16.030Z,71.79
2019-05-20T00:11:41.631Z,71.24
2019-05-20T00:15:09.447Z,71.10
2019-05-20T00:18:35.061Z,71.18
2019-05-20T00:22:00.682Z,71.14
2019-05-20T00:25:27.260Z,71.21
2019-05-20T00:28:52.896Z,70.82
2019-05-20T00:32:18.567Z,71.15
2019-05-20T00:35:44.170Z,71.20
2019-05-20T00:39:17.431Z,71.25
2019-05-20T00:42:43.050Z,71.47
2019-05-20T00:46:08.694Z,71.50
2019-05-20T00:49:35.278Z,72.21
2019-05-20T00:53:02.567Z,72.18
2019-05-20T00:56:29.422Z,71.86
2019-05-20T00:59:55.029Z,71.67
2019-05-20T01:03:20.653Z,71.32
2019-05-20T01:06:46.404Z,71.74
2019-05-20T01:10:12.259Z,71.92
2019-05-20T01:13:37.879Z,71.69
2019-05-20T01:17:03.518Z,71.54
2019-05-20T01:20:29.185Z,71.89
2019-05-20T01:23:54.799Z,72.28
2019-05-20T01:27:20.412Z,72.20
2019-05-20T01:30:46.380Z,72.35
2019-05-20T01:34:11.991Z,72.32
2019-05-20T01:37:37.599Z,72.68
2019-05-20T01:41:04.568Z,72.71
2019-05-20T01:44:30.575Z,73.27
2019-05-20T01:47:56.193Z,72.92
2019-05-20T01:51:21.801Z,72.84
2019-05-20T01:54:47.468Z,73.11
2019-05-20T01:58:13.737Z,73.22
2019-05-20T02:01:40.772Z,73.62
2019-05-20T02:05:09.607Z,73.15
2019-05-20T02:08:35.792Z,72.95
2019-05-20T02:12:01.398Z,73.36
2019-05-20T02:15:40.791Z,73.20
2019-05-20T02:19:06.675Z,72.97
2019-05-20T02:22:32.286Z,72.62
2019-05-20T02:25:57.897Z,72.74
2019-05-20T02:29:23.813Z,73.19
2019-05-20T02:32:49.518Z,73.52
2019-05-20T02:36:16.582Z,73.41
2019-05-20T02:39:42.180Z,73.82
2019-05-20T02:43:07.958Z,73.96
2019-05-20T02:46:33.577Z,73.68
2019-05-20T02:50:00.098Z,74.12
2019-05-20T02:53:26.424Z,73.90
2019-05-20T02:56:52.432Z,73.63
2019-05-20T03:00:18.415Z,74.05
2019-05-20T03:03:44.025Z,73.99
2019-05-20T03:07:09.639Z,73.71
2019-05-20T03:10:35.243Z,73.39
2019-05-20T03:14:01.234Z,73.33
2019-05-20T03:17:26.854Z,72.83
2019-05-20T03:20:52.461Z,73.42
2019-05-20T03:24:18.597Z,73.29
2019-05-20T03:27:44.313Z,73.40
2019-05-20T03:31:10.655Z,73.23
2019-05-20T03:34:46.573Z,73.54
2019-05-20T03:38:03.593Z,73.75
2019-05-20T03:41:29.198Z,73.73
2019-05-20T03:44:55.218Z,73.49
2019-05-20T03:48:20.901Z,73.25
2019-05-20T03:51:46.514Z,72.70
2019-05-20T03:55:12.542Z,72.57
2019-05-20T03:58:38.239Z,73.25
2019-05-20T04:02:04.719Z,73.50
2019-05-20T04:05:30.415Z,73.54
2019-05-20T04:08:57.686Z,73.07
2019-05-20T04:12:23.309Z,73.01
2019-05-20T04:15:48.905Z,73.30
2019-05-20T04:19:14.577Z,73.29
2019-05-20T04:22:40.177Z,73.50
2019-05-20T04:26:05.805Z,73.66
2019-05-20T04:29:31.631Z,73.75
2019-05-20T04:32:57.386Z,73.58
2019-05-20T04:36:22.992Z,73.50
2019-05-20T04:39:48.882Z,73.15
2019-05-20T04:43:14.532Z,73.21
2019-05-20T04:46:40.530Z,73.28
2019-05-20T04:50:09.202Z,73.12
2019-05-20T04:53:35.777Z,73.03
2019-05-20T04:57:01.383Z,72.84
2019-05-20T05:00:50.820Z,72.63
2019-05-20T05:04:16.431Z,72.45
2019-05-20T05:07:42.071Z,71.88
2019-05-20T05:11:07.699Z,71.74
2019-05-20T05:14:33.834Z,71.90
2019-05-20T05:17:59.438Z,71.61
2019-05-20T05:21:25.156Z,71.34
2019-05-20T05:24:50.765Z,71.17
2019-05-20T05:28:17.888Z,71.11
2019-05-20T05:31:44.254Z,71.41
2019-05-20T05:35:11.624Z,71.65
2019-05-20T05:38:37.231Z,71.44
2019-05-20T05:42:02.882Z,71.42
2019-05-20T05:45:34.324Z,71.48
2019-05-20T05:49:00.563Z,71.18
2019-05-20T05:52:26.235Z,71.47
2019-05-20T05:55:51.893Z,71.74
2019-05-20T05:59:17.574Z,71.87
2019-05-20T06:02:43.727Z,71.79
2019-05-20T06:06:12.604Z,71.60
2019-05-20T06:09:36.690Z,71.46
2019-05-20T06:13:03.121Z,71.44
2019-05-20T06:16:36.519Z,71.40
2019-05-20T06:19:56.036Z,71.02
2019-05-20T06:23:21.740Z,70.93
2019-05-20T06:26:47.353Z,70.48
2019-05-20T06:30:14.695Z,69.44
2019-05-20T06:33:40.307Z,68.37
2019-05-20T06:37:23.006Z,66.86
2019-05-20T06:40:48.610Z,66.25
2019-05-20T06:44:14.450Z,64.81
2019-05-20T06:47:40.068Z,63.49
2019-05-20T06:51:06.748Z,63.17
2019-05-20T06:54:32.779Z,63.34
2019-05-20T06:57:58.409Z,61.41
2019-05-20T07:01:24.017Z,61.18
2019-05-20T07:04:50.841Z,60.48
2019-05-20T07:08:16.449Z,59.59
2019-05-20T07:11:51.903Z,59.03
2019-05-20T07:15:10.853Z,58.91
2019-05-20T07:18:37.053Z,58.55
2019-05-20T07:22:03.135Z,58.23
2019-05-20T07:25:28.846Z,58.15
2019-05-20T07:28:54.824Z,58.94
2019-05-20T07:32:21.342Z,58.79
2019-05-20T07:35:47.012Z,58.37
2019-05-20T07:39:12.717Z,57.62
2019-05-20T07:42:38.392Z,58.61
2019-05-20T07:46:05.324Z,58.34
2019-05-20T07:49:31.417Z,57.93
2019-05-20T07:53:00.416Z,57.48
2019-05-20T07:56:30.024Z,57.76
2019-05-20T07:59:56.853Z,58.22
2019-05-20T08:03:24.286Z,58.07
2019-05-20T08:06:50.778Z,57.92
2019-05-20T08:10:17.126Z,58.31
2019-05-20T08:13:43.687Z,57.83
2019-05-20T08:17:09.686Z,57.26
2019-05-20T08:20:35.540Z,56.81
2019-05-20T08:24:01.772Z,55.63
2019-05-20T08:27:27.938Z,55.39
2019-05-20T08:30:53.557Z,55.77
2019-05-20T08:34:19.149Z,56.90
2019-05-20T08:37:46.121Z,56.32
2019-05-20T08:41:12.386Z,54.90
2019-05-20T08:44:38.010Z,53.11
2019-05-20T08:48:03.603Z,51.96
2019-05-20T08:51:29.981Z,51.51
2019-05-20T08:54:55.585Z,51.50
2019-05-20T08:58:22.373Z,53.16
2019-05-20T09:01:49.571Z,53.49
2019-05-20T09:05:15.355Z,53.63
2019-05-20T09:08:41.875Z,54.19
2019-05-20T09:12:07.799Z,52.70
2019-05-20T09:15:33.417Z,53.13
2019-05-20T09:18:59.101Z,52.24
2019-05-20T09:22:24.696Z,52.04
2019-05-20T09:25:50.398Z,51.90
2019-05-20T09:29:16.079Z,52.93
2019-05-20T09:32:43.132Z,53.62
2019-05-20T09:36:09.093Z,51.89
2019-05-20T09:39:35.511Z,49.99
2019-05-20T09:43:01.679Z,50.15
2019-05-20T09:46:27.380Z,51.80
2019-05-20T09:49:52.985Z,51.29
2019-05-20T09:53:18.721Z,52.87
2019-05-20T09:56:44.321Z,52.09
2019-05-20T10:00:11.930Z,52.13
2019-05-20T10:03:37.947Z,51.08
2019-05-20T10:07:03.721Z,50.90
2019-05-20T10:10:29.748Z,49.62
2019-05-20T10:13:55.614Z,48.47
2019-05-20T10:17:21.229Z,46.98
2019-05-20T10:20:46.877Z,46.10
2019-05-20T10:24:12.478Z,45.52
2019-05-20T10:27:38.104Z,46.65
2019-05-20T10:31:03.709Z,46.05
2019-05-20T10:34:29.332Z,45.80
2019-05-20T10:37:54.959Z,46.33
2019-05-20T10:41:20.582Z,47.13
2019-05-20T10:44:46.228Z,47.81
2019-05-20T10:48:12.746Z,48.69
2019-05-20T10:51:38.345Z,48.50
2019-05-20T10:55:05.417Z,49.20
2019-05-20T10:58:31.187Z,48.03
2019-05-20T11:01:56.904Z,49.39
2019-05-20T11:05:23.596Z,47.35
2019-05-20T11:08:49.208Z,48.30
2019-05-20T11:12:14.819Z,47.44
2019-05-20T11:15:41.402Z,48.52
2019-05-20T11:19:07.013Z,47.55
2019-05-20T11:22:33.055Z,47.26
2019-05-20T11:25:58.704Z,47.49
2019-05-20T11:29:25.849Z,48.06
2019-05-20T11:32:51.978Z,46.51
2019-05-20T11:36:18.105Z,46.83
2019-05-20T11:39:44.093Z,45.38
2019-05-20T11:43:09.788Z,46.66
2019-05-20T11:46:35.693Z,47.15
2019-05-20T11:50:01.329Z,46.09
2019-05-20T11:53:27.640Z,44.57
2019-05-20T11:56:53.704Z,45.35
2019-05-20T12:00:20.415Z,46.12
2019-05-20T12:03:46.178Z,46.14
2019-05-20T12:07:11.743Z,46.18
2019-05-20T12:10:37.818Z,45.35
2019-05-20T12:14:05.370Z,45.44
2019-05-20T12:18:34.818Z,44.46
2019-05-20T12:22:00.477Z,44.76
2019-05-20T12:25:26.128Z,43.61
2019-05-20T12:28:51.730Z,42.29
2019-05-20T12:32:17.361Z,42.54
2019-05-20T12:35:42.983Z,41.13
2019-05-20T12:39:08.912Z,41.89
2019-05-20T12:42:34.496Z,42.58
2019-05-20T12:46:00.411Z,43.96
2019-05-20T12:49:26.239Z,45.30
2019-05-20T12:52:52.189Z,45.32
2019-05-20T12:56:19.699Z,45.42
2019-05-20T12:59:45.269Z,44.71
2019-05-20T13:03:10.962Z,43.74
2019-05-20T13:06:36.912Z,44.64
2019-05-20T13:10:03.461Z,45.47
2019-05-20T13:13:41.327Z,45.47
2019-05-20T13:17:06.928Z,46.14
2019-05-20T13:20:32.819Z,45.71
2019-05-20T13:23:58.442Z,42.87
2019-05-20T13:27:24.067Z,40.42
2019-05-20T13:30:50.282Z,40.22
2019-05-20T13:34:18.692Z,39.24
2019-05-20T13:37:45.331Z,41.28
2019-05-20T13:41:10.964Z,43.64
2019-05-20T13:44:37.377Z,43.13
2019-05-20T13:48:03.455Z,41.96
2019-05-20T13:51:29.209Z,43.17
2019-05-20T13:54:55.408Z,45.34
2019-05-20T13:58:25.045Z,44.85
2019-05-20T14:01:50.662Z,42.95
2019-05-20T14:05:16.789Z,39.77
2019-05-20T14:08:42.490Z,38.44
2019-05-20T14:12:08.092Z,41.00
2019-05-20T14:15:33.762Z,38.29
2019-05-20T14:18:59.357Z,42.02
2019-05-20T14:22:25.489Z,41.76
2019-05-20T14:25:51.105Z,39.42
2019-05-20T14:29:16.893Z,40.31
2019-05-20T14:32:42.492Z,43.06
2019-05-20T14:36:08.113Z,43.63
2019-05-20T14:39:33.714Z,39.04
2019-05-20T14:42:59.441Z,36.89
2019-05-20T14:46:25.125Z,39.75
2019-05-20T14:49:51.319Z,41.08
2019-05-20T14:53:16.940Z,41.36
2019-05-20T14:56:43.647Z,39.82
2019-05-20T15:00:10.563Z,40.91
2019-05-20T15:03:36.231Z,37.51
2019-05-20T15:07:01.807Z,39.10
2019-05-20T15:10:27.537Z,39.40
2019-05-20T15:13:53.170Z,42.87
2019-05-20T15:17:18.856Z,43.49
2019-05-20T15:20:44.614Z,43.70
2019-05-20T15:24:12.259Z,46.11
2019-05-20T15:27:39.262Z,45.43
2019-05-20T15:31:04.969Z,45.17
2019-05-20T15:34:30.627Z,41.56
2019-05-20T15:37:56.254Z,44.33
2019-05-20T15:41:21.929Z,47.36
2019-05-20T15:44:47.562Z,47.75
2019-05-20T15:48:13.166Z,45.60
2019-05-20T15:51:38.772Z,45.57
2019-05-20T15:55:06.476Z,45.51
2019-05-20T15:58:32.615Z,45.92
2019-05-20T16:01:58.203Z,46.80
2019-05-20T16:05:24.156Z,45.20
2019-05-20T16:08:49.748Z,44.68
2019-05-20T16:12:15.377Z,45.40
2019-05-20T16:15:43.945Z,48.43
2019-05-20T16:19:09.595Z,44.77
2019-05-20T16:22:35.254Z,43.75
2019-05-20T16:26:00.910Z,47.60
2019-05-20T16:29:26.573Z,48.70
2019-05-20T16:32:52.274Z,50.92
2019-05-20T16:36:17.866Z,52.99
2019-05-20T16:39:43.496Z,53.67
2019-05-20T16:43:09.484Z,54.63
2019-05-20T16:46:35.996Z,55.95
2019-05-20T16:50:01.589Z,56.00
2019-05-20T16:53:27.488Z,56.39
2019-05-20T16:56:53.254Z,57.46
2019-05-20T17:00:31.337Z,57.36
2019-05-20T17:03:50.335Z,57.31
2019-05-20T17:07:16.635Z,56.74
2019-05-20T17:10:42.231Z,56.69
2019-05-20T17:14:10.535Z,56.80
2019-05-20T17:17:35.170Z,58.00
2019-05-20T17:21:01.571Z,59.50
2019-05-20T17:24:27.243Z,59.80
2019-05-20T17:27:52.858Z,60.01
2019-05-20T17:31:19.455Z,60.94
2019-05-20T17:34:45.077Z,61.01
2019-05-20T17:38:13.808Z,60.48
2019-05-20T17:41:40.103Z,59.77
2019-05-20T17:45:09.212Z,59.47
2019-05-20T17:48:35.243Z,59.69
2019-05-20T17:52:01.279Z,59.13
2019-05-20T17:55:27.161Z,59.07
2019-05-20T17:58:53.816Z,59.66
2019-05-20T18:02:19.535Z,60.68
2019-05-20T18:05:46.670Z,61.20
2019-05-20T18:09:13.553Z,60.79
2019-05-20T18:12:39.223Z,60.75
2019-05-20T18:16:05.109Z,59.93
2019-05-20T18:19:30.907Z,60.15
2019-05-20T18:22:56.504Z,60.74
2019-05-20T18:26:22.345Z,60.69
2019-05-20T18:29:48.940Z,61.17
2019-05-20T18:33:14.930Z,61.96
2019-05-20T18:36:41.383Z,62.49
2019-05-20T18:40:14.111Z,63.02
2019-05-20T18:43:36.496Z,63.21
2019-05-20T18:47:02.775Z,63.36
2019-05-20T18:50:28.565Z,63.29
2019-05-20T18:53:54.234Z,62.71
2019-05-20T18:57:20.452Z,63.03
2019-05-20T19:00:46.325Z,62.99
2019-05-20T19:04:12.418Z,63.57
2019-05-20T19:07:38.282Z,64.13
2019-05-20T19:11:04.063Z,64.14
2019-05-20T19:14:29.789Z,64.21
2019-05-20T19:17:55.732Z,64.13
2019-05-20T19:21:21.335Z,64.03
2019-05-20T19:24:46.992Z,64.68
2019-05-20T19:28:13.573Z,64.87
2019-05-20T19:31:39.208Z,64.95
2019-05-20T19:35:07.993Z,64.54
2019-05-20T19:38:35.151Z,64.25
2019-05-20T19:42:00.822Z,64.54
2019-05-20T19:45:26.505Z,65.12
2019-05-20T19:48:52.190Z,65.34
2019-05-20T19:52:17.833Z,65.87
2019-05-20T19:55:43.490Z,66.14
2019-05-20T19:59:09.185Z,66.72
2019-05-20T20:02:34.861Z,67.00
2019-05-20T20:06:00.532Z,67.12
2019-05-20T20:09:26.210Z,67.06
2019-05-20T20:12:51.895Z,67.21
2019-05-20T20:16:18.332Z,66.76
2019-05-20T20:19:44.098Z,66.71
2019-05-20T20:23:09.946Z,67.14
2019-05-20T20:26:35.538Z,66.86
2019-05-20T20:30:01.300Z,66.05
2019-05-20T20:33:28.888Z,66.21
2019-05-20T20:36:54.615Z,66.24
2019-05-20T20:40:20.435Z,66.15
2019-05-20T20:43:46.081Z,65.56
2019-05-20T20:47:11.755Z,65.40
2019-05-20T20:50:37.390Z,65.83
2019-05-20T20:54:03.227Z,65.51
2019-05-20T20:57:29.190Z,65.68
2019-05-20T21:00:54.822Z,65.85
2019-05-20T21:04:20.516Z,66.14
2019-05-20T21:07:46.174Z,66.21
2019-05-20T21:11:11.849Z,66.31
2019-05-20T21:14:37.582Z,67.35
2019-05-20T21:18:03.456Z,68.40
2019-05-20T21:21:30.261Z,68.90
2019-05-20T21:24:55.895Z,68.92
2019-05-20T21:28:22.048Z,69.25
2019-05-20T21:31:47.705Z,69.50
2019-05-20T21:35:13.552Z,69.76
2019-05-20T21:38:39.164Z,69.84
2019-05-20T21:42:04.848Z,69.42
2019-05-20T21:45:30.532Z,69.76
2019-05-20T21:48:56.153Z,70.05
2019-05-20T21:52:21.746Z,69.74
2019-05-20T21:55:47.354Z,70.31
2019-05-20T21:59:12.960Z,70.13
2019-05-20T22:02:38.565Z,69.68
2019-05-20T22:06:04.429Z,69.49
2019-05-20T22:09:30.128Z,69.27
2019-05-20T22:12:55.736Z,70.19
2019-05-20T22:16:21.348Z,70.03
2019-05-20T22:19:46.949Z,70.46
2019-05-20T22:23:15.048Z,70.88
2019-05-20T22:26:41.766Z,70.80
2019-05-20T22:30:09.501Z,70.40
2019-05-20T22:33:41.459Z,70.46
2019-05-20T22:37:02.672Z,70.43
2019-05-20T22:40:28.290Z,70.05
2019-05-20T22:43:53.911Z,70.15
2019-05-20T22:47:19.511Z,69.83
2019-05-20T22:50:48.534Z,69.76
2019-05-20T22:54:12.472Z,69.67
2019-05-20T22:57:38.093Z,69.60
2019-05-20T23:01:03.861Z,69.61
2019-05-20T23:04:29.475Z,69.54
2019-05-20T23:07:55.071Z,69.51
2019-05-20T23:11:20.681Z,69.57
2019-05-20T23:14:46.277Z,69.56
2019-05-20T23:18:11.877Z,69.74
2019-05-20T23:21:37.492Z,69.79
2019-05-20T23:25:03.111Z,69.80
2019-05-20T23:28:28.696Z,70.01
2019-05-20T23:31:54.318Z,69.63
2019-05-20T23:35:19.915Z,69.50
2019-05-20T23:38:45.858Z,69.72
2019-05-20T23:42:11.704Z,70.43
2019-05-20T23:45:37.304Z,70.67
2019-05-20T23:49:02.903Z,70.57
2019-05-20T23:52:28.626Z,70.72
2019-05-20T23:55:54.305Z,70.38
2019-05-20T23:59:19.930Z,70.31
